Time;durP1;ratioP1;P1;durP2;ratioP2;P2;SDS_P1;SDS_P2;PMS_P1;PMS_P2;Temp;Humidity;BMP_temperature;BMP_pressure;BME280_temperature;BME280_humidity;BME280_pressure;Samples;Min_cycle;Max_cycle;Signal;HPM_P1;HPM_P2
2021/06/08 04:51:45;;;;;;;;;;;16.70;99.90;;;;;;5376048;23;19922;-69
2021/06/08 04:54:12;;;;;;;;;;;16.80;99.90;;;;;;4965007;28;20396;-69
2021/06/08 04:56:39;;;;;;;;;;;16.80;99.90;;;;;;4962224;28;19930;-69
2021/06/08 04:59:05;;;;;;;;;;;16.90;99.90;;;;;;4962107;28;19975;-69
2021/06/08 05:01:34;;;;;;;;;;;17.00;99.90;;;;;;4970000;28;20372;-69
2021/06/08 05:04:03;;;;;;;;;;;17.10;99.90;;;;;;4984878;28;19995;-70
2021/06/08 05:06:30;;;;;;;;;;;17.10;99.90;;;;;;4986066;28;19930;-69
2021/06/08 05:09:00;;;;;;;;;;;17.20;99.90;;;;;;4984940;28;20017;-69
2021/06/08 05:11:29;;;;;;;;;;;17.20;99.90;;;;;;4979816;28;20077;-69
2021/06/08 05:13:56;;;;;;;;;;;17.40;99.90;;;;;;4974611;28;19922;-70
2021/06/08 05:16:23;;;;;;;;;;;17.50;99.90;;;;;;4979724;28;20302;-70
2021/06/08 05:18:53;;;;;;;;;;;17.50;99.90;;;;;;4974004;28;19932;-70
2021/06/08 05:21:20;;;;;;;;;;;17.50;99.90;;;;;;4974235;28;20020;-70
2021/06/08 05:23:47;;;;;;;;;;;17.50;99.90;;;;;;4975061;28;19988;-70
2021/06/08 05:26:15;;;;;;;;;;;17.50;99.90;;;;;;4982234;28;19922;-69
2021/06/08 05:28:42;;;;;;;;;;;17.60;99.90;;;;;;4983220;28;20414;-70
2021/06/08 05:31:08;;;;;;;;;;;17.60;99.90;;;;;;4973276;28;20013;-70
2021/06/08 05:33:35;;;;;;;;;;;17.70;99.90;;;;;;4974061;28;19933;-70
2021/06/08 05:36:02;;;;;;;;;;;17.70;99.90;;;;;;4978316;28;19948;-70
2021/06/08 05:38:29;;;;;;;;;;;17.70;99.90;;;;;;4976391;28;20057;-70
2021/06/08 05:40:55;;;;;;;;;;;17.80;99.90;;;;;;4979597;28;19949;-70
2021/06/08 05:43:23;;;;;;;;;;;17.80;99.90;;;;;;4979361;28;19949;-70
2021/06/08 05:45:50;;;;;;;;;;;17.80;99.90;;;;;;4978200;28;19926;-70
2021/06/08 05:48:19;;;;;;;;;;;17.80;99.90;;;;;;4976342;28;19936;-70
2021/06/08 05:50:46;;;;;;;;;;;17.80;99.90;;;;;;4984902;28;19961;-70
2021/06/08 05:53:12;;;;;;;;;;;17.90;99.90;;;;;;4981454;28;19960;-70
2021/06/08 05:55:41;;;;;;;;;;;18.00;99.90;;;;;;4989931;28;20381;-70
2021/06/08 05:58:08;;;;;;;;;;;18.10;99.90;;;;;;4975463;28;20021;-71
2021/06/08 06:00:36;;;;;;;;;;;18.10;99.90;;;;;;4981518;28;20279;-70
2021/06/08 06:03:03;;;;;;;;;;;18.10;99.90;;;;;;4972584;28;19922;-69
2021/06/08 06:05:29;;;;;;;;;;;18.30;99.90;;;;;;4980228;28;19976;-69
2021/06/08 06:07:56;;;;;;;;;;;18.40;99.90;;;;;;4986176;28;19976;-69
2021/06/08 06:10:24;;;;;;;;;;;18.50;99.90;;;;;;4972559;28;19926;-70
2021/06/08 06:12:52;;;;;;;;;;;18.60;99.90;;;;;;4974738;28;19921;-70
2021/06/08 06:15:18;;;;;;;;;;;18.60;99.90;;;;;;4975565;28;20394;-70
2021/06/08 06:17:46;;;;;;;;;;;18.70;99.90;;;;;;4970639;28;20286;-70
2021/06/08 06:20:14;;;;;;;;;;;18.90;99.90;;;;;;4972057;28;19922;-70
2021/06/08 06:22:41;;;;;;;;;;;18.80;99.90;;;;;;4970360;28;19926;-70
2021/06/08 06:25:10;;;;;;;;;;;18.90;99.90;;;;;;4972332;28;20381;-70
2021/06/08 06:27:37;;;;;;;;;;;19.10;99.90;;;;;;4972289;28;19926;-70
2021/06/08 06:30:05;;;;;;;;;;;19.10;99.90;;;;;;4972347;28;20505;-70
2021/06/08 06:32:31;;;;;;;;;;;19.20;99.90;;;;;;4971106;28;19930;-70
2021/06/08 06:34:59;;;;;;;;;;;19.40;99.90;;;;;;4972281;28;19926;-70
2021/06/08 06:37:25;;;;;;;;;;;19.60;99.90;;;;;;4970937;28;19929;-69
2021/06/08 06:39:53;;;;;;;;;;;19.60;99.90;;;;;;4972328;28;20017;-70
2021/06/08 06:42:19;;;;;;;;;;;19.90;99.90;;;;;;4971920;28;19922;-71
2021/06/08 06:44:46;;;;;;;;;;;19.80;99.90;;;;;;4972205;28;20367;-71
2021/06/08 06:47:15;;;;;;;;;;;19.80;99.90;;;;;;4971896;28;19994;-71
2021/06/08 06:49:41;;;;;;;;;;;20.00;99.90;;;;;;4971923;28;19926;-71
2021/06/08 06:52:09;;;;;;;;;;;20.00;99.90;;;;;;4971593;28;20037;-71
2021/06/08 06:54:36;;;;;;;;;;;20.30;99.90;;;;;;4971614;28;19929;-72
2021/06/08 06:57:04;;;;;;;;;;;20.60;99.90;;;;;;4971736;28;19961;-71
2021/06/08 06:59:30;;;;;;;;;;;21.00;99.90;;;;;;4971780;28;20346;-72
2021/06/08 07:01:57;;;;;;;;;;;21.10;99.90;;;;;;4971635;28;20451;-72
2021/06/08 07:04:24;;;;;;;;;;;21.10;99.90;;;;;;4971502;28;20490;-71
2021/06/08 07:06:51;;;;;;;;;;;21.00;99.90;;;;;;4969892;28;19953;-71
2021/06/08 07:09:23;;;;;;;;;;;21.20;99.90;;;;;;4971168;28;19925;-71
2021/06/08 07:11:50;;;;;;;;;;;21.60;99.90;;;;;;4971259;28;20404;-71
2021/06/08 07:14:17;;;;;;;;;;;22.00;99.90;;;;;;4981606;28;19980;-72
2021/06/08 07:16:43;;;;;;;;;;;21.50;99.90;;;;;;4989611;28;20385;-72
2021/06/08 07:19:11;;;;;;;;;;;22.40;99.90;;;;;;4990619;28;19932;-72
2021/06/08 07:21:38;;;;;;;;;;;22.80;99.90;;;;;;4990308;28;19993;-72
2021/06/08 07:24:05;;;;;;;;;;;23.10;99.90;;;;;;4990558;28;19922;-72
2021/06/08 07:26:33;;;;;;;;;;;23.10;99.90;;;;;;4990535;28;19961;-72
2021/06/08 07:28:59;;;;;;;;;;;23.60;99.90;;;;;;4990475;28;19976;-72
2021/06/08 07:31:32;;;;;;;;;;;24.00;99.90;;;;;;4990339;28;19966;-72
2021/06/08 07:34:03;;;;;;;;;;;23.90;99.90;;;;;;4989983;28;20362;-72
2021/06/08 07:36:34;;;;;;;;;;;23.50;99.90;;;;;;4990190;28;19957;-72
2021/06/08 07:39:02;;;;;;;;;;;23.30;99.90;;;;;;4990184;28;19925;-72
2021/06/08 07:41:33;;;;;;;;;;;23.50;99.90;;;;;;4990066;28;19969;-72
2021/06/08 07:44:02;;;;;;;;;;;23.30;99.90;;;;;;4990283;28;19961;-72
2021/06/08 07:46:30;;;;;;;;;;;23.50;99.90;;;;;;4990262;28;19921;-72
2021/06/08 07:48:57;;;;;;;;;;;23.40;99.90;;;;;;4990363;28;19926;-72
2021/06/08 07:51:24;;;;;;;;;;;23.50;99.90;;;;;;4989983;28;20365;-71
2021/06/08 07:53:50;;;;;;;;;;;23.20;99.90;;;;;;4990247;28;19969;-72
2021/06/08 07:56:17;;;;;;;;;;;23.20;99.90;;;;;;4990447;28;19951;-72
2021/06/08 07:58:43;;;;;;;;;;;22.80;99.90;;;;;;4990298;28;19926;-72
2021/06/08 08:01:14;;;;;;;;;;;22.60;99.90;;;;;;4988675;28;20424;-72
2021/06/08 08:03:41;;;;;;;;;;;22.50;99.90;;;;;;4990305;28;20348;-72
2021/06/08 08:06:08;;;;;;;;;;;22.40;99.90;;;;;;4990152;28;20334;-72
2021/06/08 08:08:35;;;;;;;;;;;22.40;99.90;;;;;;4990316;28;20025;-72
2021/06/08 08:11:04;;;;;;;;;;;22.40;99.90;;;;;;4990094;28;19961;-72
2021/06/08 08:13:32;;;;;;;;;;;22.50;99.90;;;;;;4985603;28;20012;-72
2021/06/08 08:16:02;;;;;;;;;;;22.50;99.90;;;;;;4970543;28;20259;-72
2021/06/08 08:18:30;;;;;;;;;;;22.50;99.90;;;;;;4970683;28;19922;-72
2021/06/08 08:20:57;;;;;;;;;;;22.30;99.90;;;;;;4970527;28;19933;-73
2021/06/08 08:23:26;;;;;;;;;;;22.40;99.90;;;;;;4977365;28;19921;-72
2021/06/08 08:25:52;;;;;;;;;;;22.40;99.90;;;;;;4989783;28;20493;-73
2021/06/08 08:28:19;;;;;;;;;;;22.70;99.90;;;;;;4989727;28;20013;-72
2021/06/08 08:30:45;;;;;;;;;;;22.80;99.90;;;;;;4983602;28;21432;-73
2021/06/08 08:33:11;;;;;;;;;;;22.80;99.90;;;;;;4969299;28;19925;-73
2021/06/08 08:35:40;;;;;;;;;;;23.20;99.90;;;;;;4968058;28;20320;-71
2021/06/08 08:38:07;;;;;;;;;;;23.60;99.90;;;;;;4983560;28;19932;-72
2021/06/08 08:40:33;;;;;;;;;;;24.00;99.90;;;;;;4979341;28;20025;-72
2021/06/08 08:43:03;;;;;;;;;;;24.30;99.90;;;;;;4977546;28;20349;-73
2021/06/08 08:45:31;;;;;;;;;;;24.40;99.90;;;;;;4990361;28;19922;-71
2021/06/08 08:47:57;;;;;;;;;;;24.80;99.90;;;;;;4972963;28;20013;-72
2021/06/08 08:50:24;;;;;;;;;;;25.70;99.90;;;;;;4971271;28;19926;-72
2021/06/08 08:52:56;;;;;;;;;;;26.10;99.90;;;;;;4972604;28;19937;-72
2021/06/08 08:55:24;;;;;;;;;;;26.20;99.90;;;;;;4975141;28;19937;-73
2021/06/08 08:57:50;;;;;;;;;;;25.70;99.90;;;;;;4976353;28;20405;-72
2021/06/08 09:00:17;;;;;;;;;;;25.50;99.90;;;;;;4985236;28;20029;-73
2021/06/08 09:02:44;;;;;;;;;;;25.90;99.90;;;;;;4977348;28;20381;-71
2021/06/08 09:05:11;;;;;;;;;;;25.80;99.90;;;;;;4992206;28;19922;-71
2021/06/08 09:07:37;;;;;;;;;;;25.60;99.90;;;;;;4984464;28;20313;-72
2021/06/08 09:10:08;;;;;;;;;;;25.50;99.90;;;;;;4991659;28;19921;-72
2021/06/08 09:12:35;;;;;;;;;;;26.30;99.90;;;;;;4978425;28;20000;-72
2021/06/08 09:15:02;;;;;;;;;;;26.00;99.90;;;;;;4976181;28;19958;-73
2021/06/08 09:17:28;;;;;;;;;;;26.90;99.90;;;;;;4983904;28;19926;-71
2021/06/08 09:19:55;;;;;;;;;;;27.30;99.90;;;;;;4971918;28;20386;-71
2021/06/08 09:22:21;;;;;;;;;;;27.50;99.90;;;;;;4973258;28;19985;-70
2021/06/08 09:24:54;;;;;;;;;;;26.30;99.90;;;;;;4974024;28;19932;-70
2021/06/08 09:27:26;;;;;;;;;;;26.90;99.90;;;;;;4972619;28;19922;-71
2021/06/08 09:29:53;;;;;;;;;;;26.30;99.90;;;;;;4973326;28;20547;-70
2021/06/08 09:32:21;;;;;;;;;;;26.80;99.90;;;;;;4973058;28;19928;-70
2021/06/08 09:34:48;;;;;;;;;;;27.30;99.90;;;;;;4972837;28;20029;-70
2021/06/08 09:37:15;;;;;;;;;;;26.60;99.90;;;;;;4973027;28;19922;-72
2021/06/08 09:39:44;;;;;;;;;;;27.10;99.90;;;;;;4973141;28;19930;-70
2021/06/08 09:42:18;;;;;;;;;;;26.50;99.90;;;;;;4972803;28;19922;-71
2021/06/08 09:44:45;;;;;;;;;;;26.70;99.90;;;;;;4972942;28;19922;-71
2021/06/08 09:47:24;;;;;;;;;;;26.30;99.90;;;;;;4973403;28;19925;-71
2021/06/08 09:49:50;;;;;;;;;;;25.90;99.90;;;;;;4972829;28;20400;-72
2021/06/08 09:52:18;;;;;;;;;;;26.90;99.90;;;;;;4972701;28;19926;-72
2021/06/08 09:54:45;;;;;;;;;;;27.00;99.90;;;;;;4971478;28;20009;-71
2021/06/08 09:57:15;;;;;;;;;;;27.30;99.90;;;;;;4970730;28;19933;-71
2021/06/08 09:59:43;;;;;;;;;;;26.90;99.90;;;;;;4972742;28;20402;-70
2021/06/08 10:02:22;;;;;;;;;;;27.30;99.90;;;;;;4972570;28;19929;-70
2021/06/08 10:04:48;;;;;;;;;;;27.30;99.90;;;;;;4971319;28;20008;-70
2021/06/08 10:07:25;;;;;;;;;;;27.50;99.90;;;;;;4972317;28;19922;-71
2021/06/08 10:10:01;;;;;;;;;;;27.00;99.90;;;;;;4984551;28;19977;-70
2021/06/08 10:12:27;;;;;;;;;;;27.60;99.90;;;;;;4973185;28;19961;-71
2021/06/08 10:15:03;;;;;;;;;;;27.60;99.90;;;;;;4972361;28;19969;-71
2021/06/08 10:17:31;;;;;;;;;;;27.10;99.90;;;;;;4977270;28;19922;-71
2021/06/08 10:20:07;;;;;;;;;;;27.00;99.90;;;;;;4974503;28;20017;-70
2021/06/08 10:22:34;;;;;;;;;;;26.80;99.90;;;;;;4972669;28;20008;-71
2021/06/08 10:25:00;;;;;;;;;;;27.20;99.90;;;;;;4975589;28;19922;-71
2021/06/08 10:27:26;;;;;;;;;;;27.20;99.90;;;;;;4990403;28;19977;-71
2021/06/08 10:29:53;;;;;;;;;;;27.30;99.90;;;;;;4992119;28;19932;-70
2021/06/08 10:32:19;;;;;;;;;;;27.60;99.90;;;;;;4991746;28;19922;-70
2021/06/08 10:34:47;;;;;;;;;;;26.90;99.90;;;;;;4989864;28;19922;-70
2021/06/08 10:37:13;;;;;;;;;;;27.00;99.90;;;;;;4983536;28;20412;-71
2021/06/08 10:39:40;;;;;;;;;;;27.40;99.90;;;;;;4991591;28;19926;-71
2021/06/08 10:42:07;;;;;;;;;;;27.40;99.90;;;;;;4986314;28;19925;-71
2021/06/08 10:44:35;;;;;;;;;;;27.10;99.90;;;;;;4981122;28;20697;-70
2021/06/08 10:47:07;;;;;;;;;;;27.50;99.90;;;;;;4971124;28;19933;-69
2021/06/08 10:49:34;;;;;;;;;;;27.50;99.90;;;;;;4969585;28;19922;-70
2021/06/08 10:52:06;;;;;;;;;;;27.50;99.90;;;;;;4970586;28;19922;-70
2021/06/08 10:54:37;;;;;;;;;;;27.90;99.90;;;;;;4980817;28;19980;-70
2021/06/08 10:57:09;;;;;;;;;;;27.70;99.90;;;;;;4971345;28;19922;-69
2021/06/08 10:59:36;;;;;;;;;;;27.80;99.90;;;;;;4971554;28;19926;-70
2021/06/08 11:02:02;;;;;;;;;;;28.20;99.90;;;;;;4971155;28;19926;-69
2021/06/08 11:04:44;;;;;;;;;;;28.30;99.90;;;;;;4990931;28;20025;-70
2021/06/08 11:07:11;;;;;;;;;;;28.00;99.90;;;;;;4985454;28;19929;-69
2021/06/08 11:09:38;;;;;;;;;;;27.40;99.90;;;;;;4977682;28;19953;-70
2021/06/08 11:12:20;;;;;;;;;;;27.40;99.90;;;;;;4971368;28;20394;-70
2021/06/08 11:14:59;;;;;;;;;;;28.10;99.90;;;;;;4982401;28;19925;-70
2021/06/08 11:17:32;;;;;;;;;;;27.50;99.90;;;;;;4971400;28;19969;-71
2021/06/08 11:19:59;;;;;;;;;;;28.10;99.90;;;;;;4973655;28;19969;-71
2021/06/08 11:22:40;;;;;;;;;;;27.50;99.90;;;;;;4965710;28;19934;-70
2021/06/08 11:25:25;;;;;;;;;;;27.90;99.90;;;;;;4981626;28;20314;-70
2021/06/08 11:27:55;;;;;;;;;;;27.80;99.90;;;;;;4986874;28;20023;-71
2021/06/08 11:30:22;;;;;;;;;;;27.40;99.90;;;;;;4976184;28;20017;-70
2021/06/08 11:32:49;;;;;;;;;;;26.30;99.90;;;;;;4990529;28;19925;-69
2021/06/08 11:35:17;;;;;;;;;;;26.50;99.90;;;;;;4974628;28;21317;-70
2021/06/08 11:37:48;;;;;;;;;;;26.50;99.90;;;;;;4975544;28;19930;-70
2021/06/08 11:40:33;;;;;;;;;;;26.00;99.90;;;;;;4970126;28;19929;-70
2021/06/08 11:43:01;;;;;;;;;;;26.30;99.90;;;;;;4969384;28;19922;-71
2021/06/08 11:45:28;;;;;;;;;;;26.20;99.90;;;;;;4971359;28;19929;-70
2021/06/08 11:47:54;;;;;;;;;;;26.00;99.90;;;;;;4975049;28;20016;-70
2021/06/08 11:50:35;;;;;;;;;;;26.20;99.90;;;;;;4970839;28;19928;-70
2021/06/08 11:53:05;;;;;;;;;;;26.30;99.90;;;;;;4976211;28;20012;-70
2021/06/08 11:55:31;;;;;;;;;;;26.10;99.90;;;;;;4986378;28;19929;-69
2021/06/08 11:57:58;;;;;;;;;;;26.00;99.90;;;;;;4982231;28;20013;-71
2021/06/08 12:03:27;;;;;;;;;;;26.00;99.90;;;;;;5160520;27;20415;-70
2021/06/08 12:05:53;;;;;;;;;;;25.80;99.90;;;;;;5097637;28;19924;-72
2021/06/08 12:08:22;;;;;;;;;;;26.00;99.90;;;;;;5107450;28;19924;-72
2021/06/08 12:10:49;;;;;;;;;;;26.00;99.90;;;;;;5112058;28;19927;-72
2021/06/08 12:13:17;;;;;;;;;;;26.20;99.90;;;;;;5107021;28;19931;-72
2021/06/08 12:15:44;;;;;;;;;;;26.30;99.90;;;;;;5105451;28;19924;-72
2021/06/08 12:18:11;;;;;;;;;;;26.40;99.90;;;;;;5109632;28;20330;-71
2021/06/08 12:20:40;;;;;;;;;;;26.10;99.90;;;;;;5107887;28;20027;-72
2021/06/08 12:23:06;;;;;;;;;;;26.40;99.90;;;;;;5106011;28;20480;-71
2021/06/08 12:25:33;;;;;;;;;;;26.60;99.90;;;;;;5107222;28;19980;-72
2021/06/08 12:28:00;;;;;;;;;;;26.90;99.90;;;;;;5098339;28;19928;-72
2021/06/08 12:30:28;;;;;;;;;;;26.90;99.90;;;;;;5098428;28;19938;-73
2021/06/08 12:32:56;;;;;;;;;;;27.30;99.90;;;;;;5099970;28;19924;-70
2021/06/08 12:35:25;;;;;;;;;;;27.30;99.90;;;;;;5096190;28;20400;-71
2021/06/08 12:38:07;;;;;;;;;;;27.60;99.90;;;;;;5097281;28;19969;-72
2021/06/08 12:40:34;;;;;;;;;;;28.00;99.90;;;;;;5106097;28;19938;-71
2021/06/08 12:43:01;;;;;;;;;;;27.30;99.90;;;;;;5106936;28;19924;-71
2021/06/08 12:45:27;;;;;;;;;;;27.20;99.90;;;;;;5107609;28;19928;-71
2021/06/08 12:47:54;;;;;;;;;;;26.60;99.90;;;;;;5107057;28;20009;-72
2021/06/08 12:50:28;;;;;;;;;;;26.80;99.90;;;;;;5105695;28;19936;-71
2021/06/08 12:53:02;;;;;;;;;;;27.30;99.90;;;;;;5104916;28;19930;-71
2021/06/08 12:55:29;;;;;;;;;;;27.30;99.90;;;;;;5106412;28;20315;-73
2021/06/08 12:57:59;;;;;;;;;;;27.00;99.90;;;;;;5106956;28;19932;-72
2021/06/08 13:00:26;;;;;;;;;;;27.20;99.90;;;;;;5104680;28;19924;-75
2021/06/08 13:02:52;;;;;;;;;;;27.20;99.90;;;;;;5090907;28;19938;-74
2021/06/08 13:05:20;;;;;;;;;;;26.70;99.90;;;;;;5091122;28;20373;-76
2021/06/08 13:07:49;;;;;;;;;;;26.50;99.90;;;;;;5094554;28;19996;-75
2021/06/08 13:10:27;;;;;;;;;;;27.10;99.90;;;;;;5104928;28;20426;-77
2021/06/08 13:12:54;;;;;;;;;;;27.30;99.90;;;;;;5090224;28;19975;-77
2021/06/08 13:15:27;;;;;;;;;;;26.70;99.90;;;;;;5084917;28;19924;-76
2021/06/08 13:18:02;;;;;;;;;;;27.40;99.90;;;;;;5083902;28;19935;-74
2021/06/08 13:20:30;;;;;;;;;;;27.10;99.90;;;;;;5088820;28;19967;-74
2021/06/08 13:22:56;;;;;;;;;;;27.40;99.90;;;;;;5088892;28;19971;-75
2021/06/08 13:25:26;;;;;;;;;;;27.60;99.90;;;;;;5084746;28;19928;-74
2021/06/08 13:27:52;;;;;;;;;;;27.50;99.90;;;;;;5085714;28;19939;-72
2021/06/08 13:30:20;;;;;;;;;;;27.90;99.90;;;;;;5084759;28;20387;-73
2021/06/08 13:32:55;;;;;;;;;;;27.80;99.90;;;;;;5082405;28;19973;-73
2021/06/08 13:35:21;;;;;;;;;;;27.90;99.90;;;;;;5083954;28;20007;-74
2021/06/08 13:37:48;;;;;;;;;;;27.30;99.90;;;;;;5082367;28;19928;-75
2021/06/08 13:40:16;;;;;;;;;;;27.10;99.90;;;;;;5072540;28;19928;-74
2021/06/08 13:42:54;;;;;;;;;;;28.00;99.90;;;;;;5077915;28;19928;-74
2021/06/08 13:45:27;;;;;;;;;;;27.70;99.90;;;;;;5083393;28;19985;-74
2021/06/08 13:47:54;;;;;;;;;;;28.20;99.90;;;;;;5082810;28;19938;-75
2021/06/08 13:50:21;;;;;;;;;;;28.60;99.90;;;;;;5083888;28;20288;-73
2021/06/08 13:52:49;;;;;;;;;;;28.70;99.90;;;;;;5080672;28;20011;-74
2021/06/08 13:55:16;;;;;;;;;;;28.20;99.90;;;;;;5084010;28;19967;-75
2021/06/08 13:57:47;;;;;;;;;;;27.90;99.90;;;;;;5082078;28;19932;-73
2021/06/08 14:00:23;;;;;;;;;;;27.30;99.90;;;;;;5081266;28;19975;-71
2021/06/08 14:02:51;;;;;;;;;;;27.70;99.90;;;;;;5083716;28;20303;-73
2021/06/08 14:05:21;;;;;;;;;;;27.50;99.90;;;;;;5081225;28;20466;-72
2021/06/08 14:07:48;;;;;;;;;;;27.30;99.90;;;;;;5080619;28;21667;-73
2021/06/08 14:10:14;;;;;;;;;;;27.10;99.90;;;;;;5083685;28;19924;-74
2021/06/08 14:12:55;;;;;;;;;;;27.00;99.90;;;;;;5090401;28;19967;-73
2021/06/08 14:15:23;;;;;;;;;;;27.00;99.90;;;;;;5087127;28;20006;-73
2021/06/08 14:17:50;;;;;;;;;;;27.20;99.90;;;;;;5095188;28;19935;-73
2021/06/08 14:20:17;;;;;;;;;;;26.70;99.90;;;;;;5100999;28;20014;-73
2021/06/08 14:22:43;;;;;;;;;;;26.50;99.90;;;;;;5099182;28;20021;-73
2021/06/08 14:25:10;;;;;;;;;;;27.00;99.90;;;;;;5103799;28;20375;-73
2021/06/08 14:27:36;;;;;;;;;;;26.70;99.90;;;;;;5086789;28;19924;-73
2021/06/08 14:30:03;;;;;;;;;;;26.80;99.90;;;;;;5087049;28;19928;-73
2021/06/08 14:32:31;;;;;;;;;;;27.20;99.90;;;;;;5085781;28;19932;-73
2021/06/08 14:34:59;;;;;;;;;;;27.00;99.90;;;;;;5079071;28;19960;-73
2021/06/08 14:37:25;;;;;;;;;;;26.90;99.90;;;;;;5074637;28;19924;-73
2021/06/08 14:39:53;;;;;;;;;;;26.90;99.90;;;;;;5071623;28;19932;-72
2021/06/08 14:42:19;;;;;;;;;;;26.70;99.90;;;;;;5083983;28;19938;-77
2021/06/08 14:44:45;;;;;;;;;;;26.70;99.90;;;;;;5081497;28;19974;-78
2021/06/08 14:47:12;;;;;;;;;;;27.10;99.90;;;;;;5083921;28;20713;-77
2021/06/08 14:49:39;;;;;;;;;;;26.80;99.90;;;;;;5081452;28;19987;-76
2021/06/08 14:52:06;;;;;;;;;;;26.80;99.90;;;;;;5090288;28;19932;-76
2021/06/08 14:54:32;;;;;;;;;;;26.90;99.90;;;;;;5096029;28;19927;-75
2021/06/08 14:56:59;;;;;;;;;;;27.10;99.90;;;;;;5084752;28;19932;-76
2021/06/08 14:59:25;;;;;;;;;;;27.00;99.90;;;;;;5079309;28;19924;-75
2021/06/08 15:01:51;;;;;;;;;;;27.00;99.90;;;;;;5072537;28;19928;-76
2021/06/08 15:04:19;;;;;;;;;;;27.20;99.90;;;;;;5087638;28;20383;-75
2021/06/08 15:06:46;;;;;;;;;;;27.20;99.90;;;;;;5084226;28;19924;-74
2021/06/08 15:09:14;;;;;;;;;;;27.00;99.90;;;;;;5072464;28;19932;-76
2021/06/08 15:11:41;;;;;;;;;;;26.50;99.90;;;;;;5087341;28;20014;-73
2021/06/08 15:14:07;;;;;;;;;;;26.50;99.90;;;;;;5086304;28;19989;-73
2021/06/08 15:16:33;;;;;;;;;;;26.40;99.90;;;;;;5072636;28;19936;-74
2021/06/08 15:19:00;;;;;;;;;;;26.40;99.90;;;;;;5083356;28;20015;-74
2021/06/08 15:21:26;;;;;;;;;;;25.90;99.90;;;;;;5089706;28;20371;-74
2021/06/08 15:23:54;;;;;;;;;;;26.00;99.90;;;;;;5085012;28;19928;-74
2021/06/08 15:26:20;;;;;;;;;;;25.70;99.90;;;;;;5078673;28;19932;-75
2021/06/08 15:28:47;;;;;;;;;;;25.80;99.90;;;;;;5086194;28;19928;-75
2021/06/08 15:31:14;;;;;;;;;;;25.70;99.90;;;;;;5076614;28;19967;-74
2021/06/08 15:33:40;;;;;;;;;;;25.60;99.90;;;;;;5076235;28;19931;-75
2021/06/08 15:36:07;;;;;;;;;;;25.40;99.90;;;;;;5085034;28;19925;-74
2021/06/08 15:38:34;;;;;;;;;;;25.20;99.90;;;;;;5072886;28;20416;-74
2021/06/08 15:41:01;;;;;;;;;;;25.30;99.90;;;;;;5071031;28;19935;-74
2021/06/08 15:43:28;;;;;;;;;;;25.10;99.90;;;;;;5080968;28;19932;-73
2021/06/08 15:45:55;;;;;;;;;;;25.10;99.90;;;;;;5081864;28;19927;-73
2021/06/08 15:48:21;;;;;;;;;;;25.00;99.90;;;;;;5080614;28;19951;-73
2021/06/08 15:50:47;;;;;;;;;;;25.00;99.90;;;;;;5079596;28;20308;-75
2021/06/08 15:53:14;;;;;;;;;;;25.10;99.90;;;;;;5079909;28;19931;-74
2021/06/08 15:55:40;;;;;;;;;;;24.80;99.90;;;;;;5075256;28;19924;-74
2021/06/08 15:58:08;;;;;;;;;;;24.80;99.90;;;;;;5080585;28;19929;-75
2021/06/08 16:00:38;;;;;;;;;;;24.80;99.90;;;;;;5080280;28;19928;-73
2021/06/08 16:03:04;;;;;;;;;;;24.80;99.90;;;;;;5077499;28;19924;-73
2021/06/08 16:05:30;;;;;;;;;;;24.80;99.90;;;;;;5082675;28;19938;-73
2021/06/08 16:07:57;;;;;;;;;;;25.10;99.90;;;;;;5084484;28;19993;-74
2021/06/08 16:10:23;;;;;;;;;;;25.00;99.90;;;;;;5082145;28;19970;-73
2021/06/08 16:12:49;;;;;;;;;;;25.00;99.90;;;;;;5085509;28;20018;-75
2021/06/08 16:15:20;;;;;;;;;;;25.20;99.90;;;;;;5083478;28;20022;-75
2021/06/08 16:17:46;;;;;;;;;;;25.30;99.90;;;;;;5076417;28;19931;-75
2021/06/08 16:20:13;;;;;;;;;;;25.20;99.90;;;;;;5081202;28;19974;-74
2021/06/08 16:22:40;;;;;;;;;;;25.10;99.90;;;;;;5074469;28;19981;-74
2021/06/08 16:25:06;;;;;;;;;;;25.10;99.90;;;;;;5078285;28;19928;-75
2021/06/08 16:27:33;;;;;;;;;;;25.10;99.90;;;;;;5089783;28;21525;-75
2021/06/08 16:30:00;;;;;;;;;;;25.00;99.90;;;;;;5076875;28;19971;-74
2021/06/08 16:32:28;;;;;;;;;;;25.00;99.90;;;;;;5080186;28;19924;-74
2021/06/08 16:34:54;;;;;;;;;;;25.10;99.90;;;;;;5074630;28;19924;-75
2021/06/08 16:37:21;;;;;;;;;;;25.00;99.90;;;;;;5078899;28;19959;-74
2021/06/08 16:39:47;;;;;;;;;;;24.90;99.90;;;;;;5082670;28;20019;-74
2021/06/08 16:42:13;;;;;;;;;;;24.80;99.90;;;;;;5079023;28;19924;-75
2021/06/08 16:44:42;;;;;;;;;;;24.80;99.90;;;;;;5075905;28;19989;-76
2021/06/08 16:47:08;;;;;;;;;;;24.90;99.90;;;;;;5073319;28;19932;-75
2021/06/08 16:49:36;;;;;;;;;;;24.80;99.90;;;;;;5071187;28;20415;-75
2021/06/08 16:54:49;;;;;;;;;;;24.90;99.90;;;;;;5080766;28;19920;-72
2021/06/08 16:57:15;;;;;;;;;;;24.80;99.90;;;;;;5079107;28;19974;-75
2021/06/08 16:59:42;;;;;;;;;;;24.60;99.90;;;;;;5083848;28;19928;-73
2021/06/08 17:02:08;;;;;;;;;;;24.60;99.90;;;;;;5083103;28;19935;-74
2021/06/08 17:04:34;;;;;;;;;;;24.70;99.90;;;;;;5084035;28;20395;-74
2021/06/08 17:07:03;;;;;;;;;;;24.50;99.90;;;;;;5082386;28;19928;-76
2021/06/08 17:09:29;;;;;;;;;;;24.60;99.90;;;;;;5079259;28;19984;-75
2021/06/08 17:11:56;;;;;;;;;;;24.60;99.90;;;;;;5084816;28;19977;-73
2021/06/08 17:14:22;;;;;;;;;;;24.40;99.90;;;;;;5084566;28;20451;-73
2021/06/08 17:16:48;;;;;;;;;;;24.40;99.90;;;;;;5092324;28;19958;-73
2021/06/08 17:19:14;;;;;;;;;;;24.40;99.90;;;;;;5096827;28;20019;-75
2021/06/08 17:21:41;;;;;;;;;;;24.40;99.90;;;;;;5097818;28;19930;-74
2021/06/08 17:24:09;;;;;;;;;;;24.50;99.90;;;;;;5092021;28;19928;-76
2021/06/08 17:26:36;;;;;;;;;;;24.50;99.90;;;;;;5091632;28;20011;-74
2021/06/08 17:29:02;;;;;;;;;;;24.50;99.90;;;;;;5095596;28;19924;-75
2021/06/08 17:31:28;;;;;;;;;;;24.50;99.90;;;;;;5084918;28;20394;-75
2021/06/08 17:33:55;;;;;;;;;;;24.50;99.90;;;;;;5090890;28;19928;-75
2021/06/08 17:36:21;;;;;;;;;;;24.40;99.90;;;;;;5092987;28;19985;-75
2021/06/08 17:38:49;;;;;;;;;;;24.40;99.90;;;;;;5092002;28;20459;-75
2021/06/08 17:41:16;;;;;;;;;;;24.30;99.90;;;;;;5093835;28;19931;-75
2021/06/08 17:43:43;;;;;;;;;;;24.30;99.90;;;;;;5091405;28;20391;-75
2021/06/08 17:46:09;;;;;;;;;;;24.30;99.90;;;;;;5094879;28;20144;-76
2021/06/08 17:48:36;;;;;;;;;;;24.20;99.90;;;;;;5091476;28;20571;-75
2021/06/08 17:51:02;;;;;;;;;;;24.10;99.90;;;;;;5094969;28;19938;-75
2021/06/08 17:53:28;;;;;;;;;;;23.90;99.90;;;;;;5100609;28;19924;-75
2021/06/08 17:55:57;;;;;;;;;;;23.70;99.90;;;;;;5091487;28;20311;-75
2021/06/08 17:58:25;;;;;;;;;;;23.70;99.90;;;;;;5091109;28;19924;-75
2021/06/08 18:00:51;;;;;;;;;;;23.60;99.90;;;;;;5091994;28;19924;-75
2021/06/08 18:03:18;;;;;;;;;;;23.50;99.90;;;;;;5076552;28;19928;-76
2021/06/08 18:05:44;;;;;;;;;;;23.50;99.90;;;;;;5094769;28;20015;-75
2021/06/08 18:08:11;;;;;;;;;;;23.50;99.90;;;;;;5091822;28;19955;-74
2021/06/08 18:10:42;;;;;;;;;;;23.50;99.90;;;;;;5095379;28;19931;-73
2021/06/08 18:13:08;;;;;;;;;;;23.40;99.90;;;;;;5104124;28;20450;-76
2021/06/08 18:15:38;;;;;;;;;;;23.40;99.90;;;;;;5097377;28;20009;-74
2021/06/08 18:18:11;;;;;;;;;;;23.30;99.90;;;;;;5103083;28;19928;-73
2021/06/08 18:20:37;;;;;;;;;;;23.30;99.90;;;;;;5088976;28;20382;-73
2021/06/08 18:23:06;;;;;;;;;;;23.20;99.90;;;;;;5100372;28;19928;-74
2021/06/08 18:25:33;;;;;;;;;;;23.20;99.90;;;;;;5098269;28;19928;-75
2021/06/08 18:28:00;;;;;;;;;;;23.30;99.90;;;;;;5102315;28;19936;-75
2021/06/08 18:30:27;;;;;;;;;;;23.20;99.90;;;;;;5092798;28;20013;-75
2021/06/08 18:32:55;;;;;;;;;;;23.20;99.90;;;;;;5089612;28;19982;-75
2021/06/08 18:35:22;;;;;;;;;;;23.20;99.90;;;;;;5094452;28;19924;-75
2021/06/08 18:37:48;;;;;;;;;;;23.20;99.90;;;;;;5103755;28;20027;-75
2021/06/08 18:40:15;;;;;;;;;;;23.20;99.90;;;;;;5089941;28;19952;-73
2021/06/08 18:42:41;;;;;;;;;;;23.20;99.90;;;;;;5092846;28;20049;-76
2021/06/08 18:45:08;;;;;;;;;;;23.20;99.90;;;;;;5091507;28;19956;-74
2021/06/08 18:47:35;;;;;;;;;;;23.30;99.90;;;;;;5085507;28;19932;-74
2021/06/08 18:50:02;;;;;;;;;;;23.20;99.90;;;;;;5076459;28;20295;-73
2021/06/08 18:52:29;;;;;;;;;;;23.20;99.90;;;;;;5070144;28;20417;-73
2021/06/08 18:54:55;;;;;;;;;;;23.20;99.90;;;;;;5082129;28;20015;-73
2021/06/08 18:57:21;;;;;;;;;;;23.10;99.90;;;;;;5090192;28;19932;-72
2021/06/08 18:59:48;;;;;;;;;;;23.10;99.90;;;;;;5086913;28;20011;-74
2021/06/08 19:02:15;;;;;;;;;;;23.00;99.90;;;;;;5084516;28;19924;-75
2021/06/08 19:04:41;;;;;;;;;;;22.90;99.90;;;;;;5088343;28;20011;-73
2021/06/08 19:07:09;;;;;;;;;;;22.80;99.90;;;;;;5083519;28;19924;-73
2021/06/08 19:09:35;;;;;;;;;;;22.50;99.90;;;;;;5084842;28;19960;-72
2021/06/08 19:12:02;;;;;;;;;;;22.40;99.90;;;;;;5085327;28;19931;-73
2021/06/08 19:14:31;;;;;;;;;;;22.30;99.90;;;;;;5092631;28;20334;-74
2021/06/08 19:16:57;;;;;;;;;;;22.30;99.90;;;;;;5093114;28;19967;-71